KAWO2: Kaw Lake

Data processed at Wed May 22 2019 23:50


All information presented herein is the property of the government of the United States of America and may be revised or deleted at any time without prior notice.
Dissemination of this information without the expressed written consent of the Public Affairs Office, Tulsa District U.S. Army Corps of Engineers is strictly prohibited.
These data are gathered electronically and, as presented, have not undergone any form of quality control. These data are not guaranteed to be valid or correct.
Go to home page.
Go to station list.
Go to home page.

Upstream stations:

Downstream station:
Previous Day
Next Day
Current Day
    
SHEF ID:       KAWO2     Kaw Lake
STATION TYPE:  RESERVOIR
Flood Pool:  Bottom =  1010.00, Top =  1044.50

               PRECIP     STAGE  RIV-FLOW ELEVATION   STORAGE   TW-ELEV    INFLOW   RELEASE  AIR-TEMP  WIND-DIRWIND-SPEED REL-HUMID SOLAR-RAD   VOLTAGE  BAT-LOAD
                   in        ft       cfs        ft     ac-ft        ft       cfs       cfs         F       deg       mph         %      W/m2      volt      volt
              Ccp-Rev   Ccp-Rev   Ccp-Rev   Ccp-Rev   Ccp-Rev   Ccp-Rev  Rev-Regi  Rev-Regi   Ccp-Rev   Ccp-Rev   Ccp-Rev   Ccp-Rev   Ccp-Rev   Ccp-Rev   Ccp-Rev
(US/Central)
05/22 00:00      0.00     17.44     70213   1041.06   1129648      ----    133813     70213     61.63    204.80      2.80     65.63      0.00     12.74     12.57
05/22 01:00      0.00     17.48     70476   1041.20   1134585      ----    131075     70476     61.70    208.10      2.70     68.93      0.00     12.72     12.57
05/22 02:00      0.00     17.46     70344   1041.34   1139522      ----    129107     70344     59.86    216.80      4.00     73.23      0.00     12.70     12.49
05/22 03:00      0.00     17.52     70739   1041.47   1144107      ----    126061     70739     59.13    240.30      3.90     74.39      0.00     12.69     12.49
05/22 04:00      0.00     17.55     70937   1041.60   1148692      ----    124499     70937     58.05    257.30      4.70     76.52      0.00     12.68     12.49
05/22 05:00      0.00     17.51     70673   1041.71   1152571      ----    123017     70673     56.32    244.00      3.90     80.09      0.00     12.66     12.49
05/22 06:00      0.00     17.63     71465   1041.83   1156803      ----    121910     71465     56.14    285.90      5.10     77.24      0.00     12.64     12.49
05/22 07:00      0.00     17.65     71598   1041.95   1161035      ----    121077     71598     55.31    299.20      4.20     80.97     17.40     12.86     12.41
05/22 08:00      0.00     16.82     66184   1042.07   1165298      ----    120984     66184     54.59    190.10      1.40     83.17    195.20     13.73     12.65
05/22 09:00      0.00     16.75     65735   1042.20   1169942      ----    118224     65735     58.96     52.10      1.70     69.22    391.40     14.17     13.44
05/22 10:00      0.00     16.65     65096   1042.32   1174228      ----    116709     65096     60.71     31.40      3.30     66.23    357.80     13.85     13.44
05/22 11:00      0.00     16.70     65415   1042.42   1177800      ----    115118     65415     61.16      8.70      5.10     66.91    527.70     13.87     13.37
05/22 12:00      0.00     16.03     61186   1042.54   1182086      ----    114847     61186     64.56    138.30      5.00     66.89    287.20     13.73     13.29
05/22 13:00      0.00     15.86     60131   1042.66   1186373      ----    112895     60131     65.19    206.60      5.50     70.56    215.70     13.89     13.29
05/22 14:00      0.00     15.91     60440   1042.80   1191373      ----    114481     60440     65.57    314.20      4.90     73.78    312.90     13.26     13.92
05/22 15:00      0.05     15.76     59513   1042.91   1195302      ----    113202     59513     64.35    341.70      4.90     85.44    138.00     13.97     12.73
05/22 16:00      0.00     15.82     59883   1043.04   1199989      ----    113330     59883     65.98     14.70      6.90     86.52    311.80     13.68     13.29
05/22 17:00      0.00     15.79     59698   1043.15   1204037      ----    110931     59698     66.33     37.60      8.60     88.78    253.50     13.51     13.29
05/22 18:00      0.00     15.80     59760   1043.27   1208453      ----    112975     59760     68.32     29.50      9.10     87.90    260.40     14.27     13.29
05/22 19:00      0.00     15.82     59883   1043.38   1212501      ----    114163     59883     69.80     14.10      8.60     86.19    152.70     13.16     13.21
05/22 20:00      0.01     15.81     59821   1043.51   1217284      ----    116712     59821     70.14     13.60      6.60     88.31     98.50     13.76     12.97
05/22 21:00      0.00     15.87     60192   1043.65   1222436      ----    120760     60192     69.66     22.10      6.90     90.83     20.30     12.81     13.13
05/22 22:00      0.19     15.54     58163   1043.79   1227588      ----    123303     58163     69.03     44.30     11.20     93.16      0.00     12.76     12.65
05/22 23:00      0.29     15.39     57249   1043.96   1233844      ----    128813     57249     68.23     20.50     15.50     92.94      0.00     12.76     12.57